createdAt,value
2023-04-24T00:00:01.159Z,8.45
2023-04-24T00:02:29.890Z,16.95
2023-04-24T00:04:58.255Z,13.88
2023-04-24T00:07:29.815Z,10.85
2023-04-24T00:09:58.118Z,7.25
2023-04-24T00:12:26.596Z,9.57
2023-04-24T00:14:54.611Z,10.70
2023-04-24T00:17:24.972Z,12.50
2023-04-24T00:19:59.504Z,16.77
2023-04-24T00:22:31.421Z,21.98
2023-04-24T00:24:59.467Z,15.93
2023-04-24T00:27:27.984Z,12.40
2023-04-24T00:29:55.922Z,10.82
2023-04-24T00:32:26.536Z,11.20
2023-04-24T00:34:54.645Z,11.82
2023-04-24T00:37:23.102Z,13.38
2023-04-24T00:39:51.102Z,17.23
2023-04-24T00:42:19.363Z,20.05
2023-04-24T00:44:49.737Z,15.90
2023-04-24T00:47:18.487Z,12.77
2023-04-24T00:49:46.708Z,13.15
2023-04-24T00:52:18.717Z,12.55
2023-04-24T00:54:46.872Z,10.55
2023-04-24T00:57:16.385Z,10.30
2023-04-24T00:59:45.507Z,11.45
2023-04-24T01:02:14.354Z,9.93
2023-04-24T01:04:42.844Z,16.73
2023-04-24T01:07:12.517Z,10.30
2023-04-24T01:09:45.079Z,12.43
2023-04-24T01:12:13.706Z,13.07
2023-04-24T01:14:41.851Z,11.43
2023-04-24T01:17:10.486Z,11.60
2023-04-24T01:19:39.001Z,10.73
2023-04-24T01:22:15.768Z,13.43
2023-04-24T01:24:44.550Z,11.48
2023-04-24T01:27:14.493Z,10.80
2023-04-24T01:29:42.929Z,8.20
2023-04-24T01:32:13.653Z,12.27
2023-04-24T01:34:42.137Z,10.25
2023-04-24T01:37:10.563Z,10.02
2023-04-24T01:39:39.143Z,12.88
2023-04-24T01:42:08.188Z,8.60
2023-04-24T01:44:37.655Z,11.55
2023-04-24T01:47:07.210Z,8.95
2023-04-24T01:49:36.629Z,10.75
2023-04-24T01:52:06.133Z,9.82
2023-04-24T01:54:34.269Z,10.95
2023-04-24T01:57:03.809Z,11.38
2023-04-24T01:59:34.338Z,9.98
2023-04-24T02:02:02.613Z,15.25
2023-04-24T02:04:31.648Z,22.48
2023-04-24T02:06:59.995Z,42.55
2023-04-24T02:09:28.048Z,21.45
2023-04-24T02:11:57.503Z,15.75
2023-04-24T02:14:28.183Z,16.10
2023-04-24T02:16:58.852Z,24.00
2023-04-24T02:19:27.421Z,27.42
2023-04-24T02:21:55.659Z,29.80
2023-04-24T02:24:23.713Z,16.70
2023-04-24T02:26:53.754Z,12.75
2023-04-24T02:29:22.166Z,14.30
2023-04-24T02:31:52.028Z,17.75
2023-04-24T02:34:20.100Z,17.23
2023-04-24T02:36:48.387Z,14.15
2023-04-24T02:39:19.894Z,14.27
2023-04-24T02:41:48.452Z,15.07
2023-04-24T02:44:18.441Z,13.43
2023-04-24T02:46:46.954Z,21.23
2023-04-24T02:49:14.888Z,11.95
2023-04-24T02:51:43.142Z,11.85
2023-04-24T02:54:11.134Z,14.40
2023-04-24T02:56:39.573Z,15.10
2023-04-24T02:59:08.852Z,14.00
2023-04-24T03:01:37.579Z,14.63
2023-04-24T03:04:05.941Z,13.70
2023-04-24T03:06:36.528Z,11.25
2023-04-24T03:09:04.730Z,11.63
2023-04-24T03:11:33.905Z,13.35
2023-04-24T03:14:02.253Z,46.72
2023-04-24T03:16:30.682Z,18.27
2023-04-24T03:18:58.681Z,17.25
2023-04-24T03:21:30.606Z,39.28
2023-04-24T03:24:00.126Z,15.90
2023-04-24T03:26:28.524Z,16.30
2023-04-24T03:29:09.404Z,17.23
2023-04-24T03:31:37.805Z,24.30
2023-04-24T03:34:05.999Z,25.05
2023-04-24T03:36:34.743Z,22.67
2023-04-24T03:39:02.655Z,19.90
2023-04-24T03:41:34.619Z,14.35
2023-04-24T03:44:11.706Z,16.77
2023-04-24T03:46:40.123Z,18.00
2023-04-24T03:49:08.943Z,24.27
2023-04-24T03:51:41.129Z,21.25
2023-04-24T03:54:28.994Z,21.98
2023-04-24T03:56:57.226Z,52.50
2023-04-24T03:59:27.815Z,162.75
2023-04-24T04:02:11.610Z,187.88
2023-04-24T04:04:39.966Z,205.48
2023-04-24T04:07:09.098Z,59.65
2023-04-24T04:09:37.278Z,13.75
2023-04-24T04:12:05.516Z,13.75
2023-04-24T04:14:35.010Z,14.52
2023-04-24T04:17:04.245Z,15.45
2023-04-24T04:19:32.498Z,17.45
2023-04-24T04:22:00.971Z,19.48
2023-04-24T04:24:44.149Z,17.63
2023-04-24T04:27:13.539Z,15.43
2023-04-24T04:29:51.188Z,9.60
2023-04-24T04:32:19.847Z,9.52
2023-04-24T04:34:47.878Z,12.90
2023-04-24T04:37:16.549Z,10.73
2023-04-24T04:39:54.645Z,14.82
2023-04-24T04:42:27.007Z,13.50
2023-04-24T04:44:55.312Z,11.30
2023-04-24T04:47:33.638Z,9.60
2023-04-24T04:50:04.911Z,15.18
2023-04-24T04:52:34.765Z,8.68
2023-04-24T04:55:20.927Z,8.35
2023-04-24T04:58:11.879Z,9.27
2023-04-24T05:00:40.190Z,8.32
2023-04-24T05:03:21.290Z,9.05
2023-04-24T05:05:55.029Z,10.98
2023-04-24T05:08:27.433Z,13.15
2023-04-24T05:10:56.606Z,13.50
2023-04-24T05:13:38.478Z,10.80
2023-04-24T05:16:13.117Z,10.23
2023-04-24T05:18:42.423Z,14.68
2023-04-24T05:21:13.001Z,11.77
2023-04-24T05:23:43.507Z,10.38
2023-04-24T05:26:12.804Z,16.02
2023-04-24T05:28:42.011Z,16.58
2023-04-24T05:31:13.758Z,18.88
2023-04-24T05:33:42.838Z,19.42
2023-04-24T05:36:11.263Z,81.85
2023-04-24T05:38:39.931Z,17.55
2023-04-24T05:41:07.883Z,20.08
2023-04-24T05:43:36.392Z,11.77
2023-04-24T05:46:04.488Z,11.65
2023-04-24T05:48:32.827Z,10.48
2023-04-24T05:51:03.165Z,17.17
2023-04-24T05:53:31.834Z,13.15
2023-04-24T05:56:00.222Z,10.90
2023-04-24T05:58:29.065Z,28.25
2023-04-24T06:00:57.085Z,58.90
2023-04-24T06:03:26.170Z,10.75
2023-04-24T06:05:55.010Z,105.90
2023-04-24T06:08:24.656Z,10.43
2023-04-24T06:10:53.497Z,9.98
2023-04-24T06:13:23.471Z,9.25
2023-04-24T06:16:11.565Z,16.42
2023-04-24T06:18:43.092Z,23.05
2023-04-24T06:21:11.103Z,6.70
2023-04-24T06:23:39.664Z,8.00
2023-04-24T06:26:09.563Z,8.20
2023-04-24T06:28:38.227Z,5.82
2023-04-24T06:31:06.090Z,5.60
2023-04-24T06:33:34.955Z,5.82
2023-04-24T06:36:05.069Z,5.47
2023-04-24T06:38:33.744Z,13.25
2023-04-24T06:41:01.940Z,8.57
2023-04-24T06:43:30.361Z,9.05
2023-04-24T06:45:59.304Z,4.68
2023-04-24T06:48:27.821Z,7.30
2023-04-24T06:50:56.074Z,6.13
2023-04-24T06:53:24.501Z,7.85
2023-04-24T06:55:52.740Z,13.43
2023-04-24T06:58:21.272Z,2.97
2023-04-24T07:00:49.469Z,48.75
2023-04-24T07:03:18.126Z,11.05
2023-04-24T07:05:47.343Z,8.40
2023-04-24T07:08:18.099Z,11.80
2023-04-24T07:10:47.075Z,29.10
2023-04-24T07:13:16.006Z,16.58
2023-04-24T07:15:44.492Z,13.38
2023-04-24T07:18:13.200Z,46.67
2023-04-24T07:20:41.921Z,25.60
2023-04-24T07:23:10.418Z,26.08
2023-04-24T07:25:39.403Z,11.25
2023-04-24T07:28:07.971Z,35.95
2023-04-24T07:30:36.285Z,14.32
2023-04-24T07:33:04.765Z,16.65
2023-04-24T07:35:33.086Z,14.70
2023-04-24T07:38:01.642Z,25.92
2023-04-24T07:40:29.934Z,23.70
2023-04-24T07:42:58.571Z,25.42
2023-04-24T07:45:29.035Z,19.77
2023-04-24T07:47:57.556Z,7.68
2023-04-24T07:50:25.771Z,32.05
2023-04-24T07:52:54.184Z,29.45
2023-04-24T07:55:24.659Z,9.70
2023-04-24T07:57:53.413Z,10.93
2023-04-24T08:00:22.122Z,7.78
2023-04-24T08:02:50.945Z,12.32
2023-04-24T08:05:19.398Z,8.48
2023-04-24T08:07:49.902Z,7.68
2023-04-24T08:10:18.456Z,15.93
2023-04-24T08:12:47.030Z,12.43
2023-04-24T08:15:15.342Z,16.27
2023-04-24T08:17:43.998Z,10.38
2023-04-24T08:20:15.659Z,28.17
2023-04-24T08:22:44.881Z,9.82
2023-04-24T08:25:13.187Z,12.35
2023-04-24T08:27:41.769Z,6.97
2023-04-24T08:30:10.169Z,12.32
2023-04-24T08:32:38.991Z,7.10
2023-04-24T08:35:10.283Z,6.30
2023-04-24T08:37:38.930Z,5.50
2023-04-24T08:40:15.193Z,6.90
2023-04-24T08:42:46.938Z,6.80
2023-04-24T08:45:15.351Z,5.88
2023-04-24T08:47:45.586Z,6.55
2023-04-24T08:50:14.223Z,5.20
2023-04-24T08:52:43.915Z,7.03
2023-04-24T08:55:12.114Z,4.18
2023-04-24T08:57:41.460Z,4.70
2023-04-24T09:00:11.961Z,9.10
2023-04-24T09:02:47.424Z,4.45
2023-04-24T09:07:47.126Z,9.02
2023-04-24T09:10:15.827Z,3.88
2023-04-24T09:12:45.300Z,5.88
2023-04-24T09:15:13.634Z,3.75
2023-04-24T09:17:42.651Z,5.88
2023-04-24T09:20:11.171Z,4.97
2023-04-24T09:22:39.891Z,4.93
2023-04-24T09:25:09.864Z,10.18
2023-04-24T09:27:38.440Z,8.30
2023-04-24T09:30:06.964Z,4.25
2023-04-24T09:32:35.745Z,4.72
2023-04-24T09:35:11.178Z,6.20
2023-04-24T09:37:40.793Z,3.70
2023-04-24T09:40:18.972Z,4.30
2023-04-24T09:42:58.952Z,3.50
2023-04-24T09:45:31.086Z,3.50
2023-04-24T09:48:00.044Z,4.15
2023-04-24T09:50:28.225Z,11.00
2023-04-24T09:53:11.778Z,3.25
2023-04-24T09:55:47.292Z,4.88
2023-04-24T09:58:15.884Z,3.47
2023-04-24T10:00:44.178Z,9.35
2023-04-24T10:03:12.987Z,4.50
2023-04-24T10:05:42.394Z,5.50
2023-04-24T10:08:15.009Z,3.83
2023-04-24T10:10:43.195Z,5.15
2023-04-24T10:13:12.780Z,9.10
2023-04-24T10:15:41.870Z,4.15
2023-04-24T10:18:11.110Z,9.45
2023-04-24T10:20:40.452Z,3.92
2023-04-24T10:23:09.140Z,5.35
2023-04-24T10:25:38.127Z,4.32
2023-04-24T10:28:09.011Z,5.55
2023-04-24T10:30:38.580Z,3.13
2023-04-24T10:33:08.411Z,5.55
2023-04-24T10:35:42.512Z,2.95
2023-04-24T10:38:13.096Z,13.95
2023-04-24T10:40:41.799Z,4.60
2023-04-24T10:43:14.077Z,3.42
2023-04-24T10:45:42.392Z,3.88
2023-04-24T10:48:15.223Z,5.32
2023-04-24T10:50:47.981Z,4.07
2023-04-24T10:53:19.747Z,7.80
2023-04-24T10:55:47.942Z,3.53
2023-04-24T10:58:17.955Z,4.10
2023-04-24T11:00:46.351Z,4.30
2023-04-24T11:03:25.851Z,2.92
2023-04-24T11:05:55.609Z,7.25
2023-04-24T11:08:24.166Z,3.28
2023-04-24T11:10:58.473Z,4.70
2023-04-24T11:13:28.016Z,3.42
2023-04-24T11:16:15.325Z,3.30
2023-04-24T11:18:51.743Z,3.53
2023-04-24T11:21:20.551Z,4.10
2023-04-24T11:23:49.388Z,3.47
2023-04-24T11:26:24.208Z,4.20
2023-04-24T11:28:52.764Z,6.07
2023-04-24T11:31:39.208Z,6.18
2023-04-24T11:34:09.431Z,4.65
2023-04-24T11:36:37.813Z,12.65
2023-04-24T11:39:07.300Z,4.22
2023-04-24T11:41:36.421Z,11.82
2023-04-24T11:44:05.483Z,11.65
2023-04-24T11:46:33.933Z,7.75
2023-04-24T11:49:02.909Z,9.07
2023-04-24T11:51:40.262Z,7.38
2023-04-24T11:54:17.046Z,6.55
2023-04-24T11:56:49.262Z,4.03
2023-04-24T11:59:17.821Z,5.75
2023-04-24T12:01:50.084Z,7.07
2023-04-24T12:04:20.587Z,3.28
2023-04-24T12:07:15.253Z,6.03
2023-04-24T12:09:44.175Z,3.88
2023-04-24T12:12:13.408Z,12.05
2023-04-24T12:14:45.795Z,8.00
2023-04-24T12:17:14.009Z,7.43
2023-04-24T12:19:47.563Z,8.55
2023-04-24T12:22:16.032Z,6.78
2023-04-24T12:25:01.718Z,5.38
2023-04-24T12:27:36.177Z,4.40
2023-04-24T12:30:06.370Z,6.07
2023-04-24T12:32:34.746Z,4.25
2023-04-24T12:35:07.257Z,5.15
2023-04-24T12:37:37.471Z,4.55
2023-04-24T12:40:12.624Z,6.72
2023-04-24T12:42:44.901Z,5.40
2023-04-24T12:45:14.136Z,7.70
2023-04-24T12:47:42.951Z,6.38
2023-04-24T12:50:12.978Z,5.93
2023-04-24T12:52:42.732Z,5.63
2023-04-24T12:55:13.545Z,6.05
2023-04-24T12:57:44.498Z,5.35
2023-04-24T13:00:14.954Z,6.88
2023-04-24T13:02:43.257Z,7.75
2023-04-24T13:05:12.845Z,6.63
2023-04-24T13:07:41.357Z,8.50
2023-04-24T13:10:09.957Z,10.77
2023-04-24T13:12:38.658Z,7.72
2023-04-24T13:15:08.011Z,7.97
2023-04-24T13:17:36.394Z,10.25
2023-04-24T13:20:05.176Z,3.75
2023-04-24T13:22:33.430Z,5.68
2023-04-24T13:25:02.255Z,4.72
2023-04-24T13:27:30.464Z,6.43
2023-04-24T13:29:58.758Z,8.35
2023-04-24T13:32:27.304Z,4.40
2023-04-24T13:34:56.112Z,6.15
2023-04-24T13:37:25.801Z,3.83
2023-04-24T13:39:54.729Z,7.07
2023-04-24T13:42:22.850Z,6.78
2023-04-24T13:44:52.326Z,10.00
2023-04-24T13:47:20.433Z,5.28
2023-04-24T13:49:48.764Z,7.30
2023-04-24T13:52:17.212Z,8.90
2023-04-24T13:54:45.742Z,4.05
2023-04-24T13:57:14.005Z,6.60
2023-04-24T13:59:42.630Z,9.00
2023-04-24T14:02:10.893Z,3.50
2023-04-24T14:04:39.893Z,5.85
2023-04-24T14:07:09.551Z,3.67
2023-04-24T14:09:38.151Z,5.40
2023-04-24T14:12:06.821Z,3.92
2023-04-24T14:14:35.840Z,5.22
2023-04-24T14:17:04.279Z,7.13
2023-04-24T14:19:33.080Z,5.82
2023-04-24T14:22:02.052Z,3.92
2023-04-24T14:24:31.685Z,4.78
2023-04-24T14:27:01.292Z,6.28
2023-04-24T14:29:29.753Z,6.68
2023-04-24T14:31:58.167Z,7.95
2023-04-24T14:34:26.742Z,5.35
2023-04-24T14:36:55.864Z,4.57
2023-04-24T14:39:24.356Z,5.43
2023-04-24T14:41:52.666Z,5.05
2023-04-24T14:44:21.099Z,7.32
2023-04-24T14:46:50.564Z,8.23
2023-04-24T14:49:19.153Z,7.10
2023-04-24T14:51:47.409Z,6.85
2023-04-24T14:54:15.963Z,8.27
2023-04-24T14:56:45.378Z,5.13
2023-04-24T14:59:14.290Z,7.45
2023-04-24T15:01:42.558Z,6.78
2023-04-24T15:04:11.228Z,4.50
2023-04-24T15:06:39.583Z,6.30
2023-04-24T15:09:08.370Z,6.15
2023-04-24T15:11:36.640Z,5.57
2023-04-24T15:14:05.290Z,5.80
2023-04-24T15:16:33.579Z,5.57
2023-04-24T15:19:02.744Z,9.80
2023-04-24T15:21:31.772Z,6.40
2023-04-24T15:24:00.464Z,11.15
2023-04-24T15:26:28.680Z,18.33
2023-04-24T15:28:57.122Z,22.75
2023-04-24T15:31:25.251Z,12.18
2023-04-24T15:33:54.954Z,19.05
2023-04-24T15:36:23.580Z,8.57
2023-04-24T15:38:52.108Z,28.80
2023-04-24T15:41:20.358Z,13.57
2023-04-24T15:43:49.093Z,14.35
2023-04-24T15:46:17.378Z,8.65
2023-04-24T15:48:46.219Z,8.18
2023-04-24T15:51:14.443Z,14.68
2023-04-24T15:53:43.593Z,10.45
2023-04-24T15:56:11.921Z,8.10
2023-04-24T15:58:41.658Z,8.15
2023-04-24T16:01:10.317Z,13.27
2023-04-24T16:03:40.818Z,10.68
2023-04-24T16:06:09.151Z,8.40
2023-04-24T16:08:38.608Z,15.18
2023-04-24T16:11:06.846Z,23.52
2023-04-24T16:13:35.552Z,37.35
2023-04-24T16:16:06.651Z,20.50
2023-04-24T16:18:34.806Z,21.95
2023-04-24T16:21:03.098Z,20.40
2023-04-24T16:23:33.063Z,16.17
2023-04-24T16:26:01.459Z,19.63
2023-04-24T16:28:31.353Z,15.98
2023-04-24T16:30:59.248Z,15.43
2023-04-24T16:33:29.959Z,22.33
2023-04-24T16:35:58.408Z,55.30
2023-04-24T16:38:28.421Z,16.88
2023-04-24T16:40:56.366Z,15.00
2023-04-24T16:43:24.619Z,20.00
2023-04-24T16:45:52.991Z,60.25
2023-04-24T16:48:22.405Z,38.83
2023-04-24T16:50:50.382Z,85.30
2023-04-24T16:53:19.582Z,55.67
2023-04-24T16:55:49.141Z,33.05
2023-04-24T16:58:19.112Z,28.15
2023-04-24T17:00:48.930Z,23.88
2023-04-24T17:03:17.248Z,22.90
2023-04-24T17:05:45.581Z,25.10
2023-04-24T17:08:14.352Z,52.97
2023-04-24T17:10:42.409Z,32.47
2023-04-24T17:13:11.333Z,83.95
2023-04-24T17:15:40.469Z,163.82
2023-04-24T17:18:09.180Z,33.03
2023-04-24T17:20:37.187Z,26.80
2023-04-24T17:23:05.539Z,20.25
2023-04-24T17:25:33.715Z,19.30
2023-04-24T17:28:02.100Z,16.85
2023-04-24T17:30:30.504Z,31.08
2023-04-24T17:32:58.811Z,82.38
2023-04-24T17:35:27.907Z,38.88
2023-04-24T17:37:57.063Z,72.70
2023-04-24T17:40:25.530Z,20.50
2023-04-24T17:42:54.714Z,16.83
2023-04-24T17:45:22.873Z,30.17
2023-04-24T17:47:51.878Z,26.67
2023-04-24T17:50:20.178Z,27.13
2023-04-24T17:52:48.595Z,24.88
2023-04-24T17:55:17.173Z,21.20
2023-04-24T17:57:45.908Z,23.02
2023-04-24T18:00:14.393Z,19.52
2023-04-24T18:02:44.316Z,20.77
2023-04-24T18:05:12.422Z,20.42
2023-04-24T18:07:41.124Z,17.38
2023-04-24T18:10:10.044Z,17.67
2023-04-24T18:12:44.420Z,18.45
2023-04-24T18:15:14.768Z,20.38
2023-04-24T18:17:43.980Z,19.75
2023-04-24T18:20:14.535Z,19.95
2023-04-24T18:22:43.610Z,17.40
2023-04-24T18:25:12.077Z,25.77
2023-04-24T18:27:41.499Z,15.30
2023-04-24T18:30:14.207Z,13.80
2023-04-24T18:32:43.201Z,11.75
2023-04-24T18:35:11.412Z,11.07
2023-04-24T18:37:40.675Z,10.30
2023-04-24T18:40:09.865Z,10.93
2023-04-24T18:42:38.609Z,9.65
2023-04-24T18:45:07.187Z,8.57
2023-04-24T18:47:35.929Z,8.65
2023-04-24T18:50:05.425Z,8.55
2023-04-24T18:52:34.910Z,11.88
2023-04-24T18:55:04.066Z,12.75
2023-04-24T18:57:33.142Z,12.95
2023-04-24T19:00:01.335Z,16.30
2023-04-24T19:02:30.141Z,13.68
2023-04-24T19:04:58.225Z,11.75
2023-04-24T19:07:26.526Z,10.73
2023-04-24T19:09:54.620Z,9.90
2023-04-24T19:12:23.234Z,10.52
2023-04-24T19:14:51.916Z,10.52
2023-04-24T19:17:24.482Z,9.85
2023-04-24T19:19:52.474Z,11.52
2023-04-24T19:22:21.036Z,8.82
2023-04-24T19:24:49.171Z,10.07
2023-04-24T19:27:17.558Z,9.30
2023-04-24T19:29:46.165Z,9.65
2023-04-24T19:32:14.864Z,10.15
2023-04-24T19:34:43.026Z,12.82
2023-04-24T19:37:11.535Z,10.18
2023-04-24T19:39:39.552Z,9.70
2023-04-24T19:42:07.888Z,9.55
2023-04-24T19:44:35.963Z,10.85
2023-04-24T19:47:04.593Z,10.82
2023-04-24T19:49:32.551Z,11.05
2023-04-24T19:52:00.894Z,11.70
2023-04-24T19:54:29.486Z,11.15
2023-04-24T19:56:58.273Z,10.90
2023-04-24T19:59:26.189Z,11.00
2023-04-24T20:01:55.237Z,11.43
2023-04-24T20:04:23.587Z,11.18
2023-04-24T20:06:52.024Z,11.52
2023-04-24T20:09:20.038Z,10.60
2023-04-24T20:11:51.328Z,11.30
2023-04-24T20:14:19.534Z,12.95
2023-04-24T20:16:47.759Z,13.88
2023-04-24T20:19:15.912Z,12.27
2023-04-24T20:21:44.293Z,13.10
2023-04-24T20:24:12.377Z,12.32
2023-04-24T20:26:41.102Z,13.30
2023-04-24T20:29:09.019Z,13.20
2023-04-24T20:31:37.702Z,13.63
2023-04-24T20:34:06.387Z,12.65
2023-04-24T20:36:35.241Z,11.18
2023-04-24T20:39:05.046Z,32.78
2023-04-24T20:41:34.195Z,71.45
2023-04-24T20:44:04.136Z,75.63
2023-04-24T20:46:32.919Z,68.20
2023-04-24T20:49:00.945Z,45.58
2023-04-24T20:51:29.976Z,24.45
2023-04-24T20:53:57.954Z,18.85
2023-04-24T20:56:26.362Z,22.27
2023-04-24T20:58:56.790Z,32.03
2023-04-24T21:01:25.668Z,15.95
2023-04-24T21:03:54.046Z,26.60
2023-04-24T21:06:22.705Z,10.80
2023-04-24T21:08:50.717Z,11.60
2023-04-24T21:11:19.158Z,13.00
2023-04-24T21:13:47.216Z,19.23
2023-04-24T21:16:15.809Z,20.88
2023-04-24T21:18:43.813Z,20.42
2023-04-24T21:21:12.336Z,18.20
2023-04-24T21:23:40.388Z,26.05
2023-04-24T21:26:08.593Z,32.05
2023-04-24T21:28:36.934Z,24.40
2023-04-24T21:31:05.329Z,24.95
2023-04-24T21:33:33.610Z,26.35
2023-04-24T21:36:01.931Z,17.13
2023-04-24T21:38:29.965Z,17.90
2023-04-24T21:40:58.205Z,17.27
2023-04-24T21:43:37.275Z,41.53
2023-04-24T21:46:12.208Z,43.95
2023-04-24T21:48:40.156Z,21.75
2023-04-24T21:51:08.403Z,17.38
2023-04-24T21:53:36.757Z,18.13
2023-04-24T21:56:05.309Z,16.88
2023-04-24T21:58:34.214Z,13.63
2023-04-24T22:01:02.735Z,16.83
2023-04-24T22:03:30.969Z,17.60
2023-04-24T22:05:59.419Z,13.35
2023-04-24T22:08:27.350Z,15.10
2023-04-24T22:10:55.659Z,16.17
2023-04-24T22:13:23.614Z,20.67
2023-04-24T22:15:52.027Z,18.02
2023-04-24T22:18:20.152Z,21.38
2023-04-24T22:20:48.641Z,15.30
2023-04-24T22:23:16.621Z,14.57
2023-04-24T22:25:45.142Z,15.35
2023-04-24T22:28:13.178Z,17.63
2023-04-24T22:30:41.369Z,17.95
2023-04-24T22:33:10.061Z,14.20
2023-04-24T22:35:38.192Z,13.77
2023-04-24T22:38:06.243Z,11.98
2023-04-24T22:40:35.166Z,11.77
2023-04-24T22:43:03.827Z,13.35
2023-04-24T22:45:32.298Z,12.43
2023-04-24T22:48:00.444Z,13.32
2023-04-24T22:50:29.278Z,12.18
2023-04-24T22:52:57.339Z,13.80
2023-04-24T22:55:25.672Z,15.05
2023-04-24T22:57:54.103Z,16.38
2023-04-24T23:00:22.361Z,16.60
2023-04-24T23:02:50.728Z,13.95
2023-04-24T23:05:21.484Z,14.75
2023-04-24T23:07:49.474Z,15.50
2023-04-24T23:10:17.977Z,17.98
2023-04-24T23:12:45.947Z,16.42
2023-04-24T23:15:14.037Z,16.92
2023-04-24T23:17:42.034Z,17.50
2023-04-24T23:20:14.215Z,16.27
2023-04-24T23:22:42.399Z,15.77
2023-04-24T23:25:11.096Z,14.82
2023-04-24T23:27:39.358Z,13.65
2023-04-24T23:30:08.414Z,14.38
2023-04-24T23:32:36.387Z,14.25
2023-04-24T23:35:05.033Z,18.70
2023-04-24T23:37:32.931Z,15.50
2023-04-24T23:40:01.205Z,15.32
2023-04-24T23:42:29.277Z,16.38
2023-04-24T23:44:57.582Z,14.32
2023-04-24T23:47:25.476Z,14.95
2023-04-24T23:49:53.850Z,13.70
2023-04-24T23:52:22.099Z,14.27
2023-04-24T23:54:50.485Z,13.57
2023-04-24T23:57:19.308Z,17.67
2023-04-24T23:59:47.626Z,15.05
